Pagrindinis puslapis
METAR-TAF:

METAR-TAF

Oro uostai :

Tucumcari Municipal Airport

Tucumcari, Naujoji Meksika, Jungtinės Amerikos Valstijos

platuma: 35-10-58N, ilguma: 103-36-11W, Aukštis: 1239 m

Dabartinis oras

Ataskaita buvo paskelbta 53 minutes, ne 10:53 UTC
Vėjas 7 kt iš Vakarų/Pietvakarių
Temperatūra 15°C
Drėgmė 33%
Slėgis 1019 hPa
Matomumas: 16.1 km
Giedras dangus

METAR: KTCC 231053Z AUTO 24007KT 10SM CLR 15/M01 A3009 RMK AO2 SLP135 T01501006

Laikas: 05:46 (11:46 UTC)

Prognozė

Ataskaita buvo paskelbta 26 minutes, ne 11:20 UTC
Prognozė galioja nuo 23 metu 12 UTC su 24 metu 12 UTC
Vėjas 10 kt iš Pietvakarių
Matomumas: 10 km
Išsisklaidę debesys ne aukštis 25000 ft
Nuo 23 metu 1800 UTC
Vėjas 11 kt iš Pietų/Pietvakarių su gūsio iki 17 kt
Matomumas: 10 km
Išsisklaidę debesys ne aukštis 25000 ft
Nuo 24 metu 0100 UTC
Vėjas 10 kt iš Pietų
Matomumas: 10 km
Su prošvaistėmis ne aukštis 22000 ft

TAF: KTCC 231120Z 2312/2412 23010KT P6SM SCT250 FM231800 21011G17KT P6SM SCT250 FM240100 19010KT P6SM BKN220

Orai ataskaitas ir orų prognozės (METAR, TAF).

turimą stotys yra geltonos ir raudonos taškus žemėlapyje.

Perkelti pele per norėdami pamatyti stoties vardą.

Tada spustelėkite, norėdami matyti oro stebėjimo ir prognozės.

Norėdami pakeisti žemėlapį: spustelėkite ant žalios mygtukų su juodo kryžiaus žemyn,; žalią mygtuką su brūkšneliu, jei norite nutolinti; arba žalių rodyklių gretimoms žemėlapius.


METAR-TAF: